Date,TemperatureHighF,TemperatureAvgF,TemperatureLowF,DewpointHighF,DewpointAvgF,DewpointLowF,HumidityHigh,HumidityAvg,HumidityLow,PressureMaxIn,PressureMinIn,WindSpeedMaxMPH,WindSpeedAvgMPH,GustSpeedMaxMPH,PrecipitationSumIn
2013-5-1,71.5,49.6,36.6,52.7,41.5,32.9,89,75,51,30.32,29.61,38,14,38,0.78
2013-5-2,52.0,42.0,33.4,34.3,28.4,16.4,91,63,28,30.50,30.28,42,15,42,0.46
2013-5-3,56.9,45.8,34.1,30.5,24.2,14.4,73,47,21,30.36,29.97,33,10,33,0.00
2013-5-4,47.1,44.3,41.8,37.8,32.1,24.4,80,63,47,30.08,29.90,30,12,30,0.00
2013-5-5,63.9,50.9,42.9,48.9,42.4,37.5,86,73,53,30.15,30.02,21,7,21,0.00
2013-5-6,68.3,54.2,42.6,50.9,46.2,39.8,91,76,52,30.10,29.96,13,3,13,0.00
2013-5-7,72.7,62.5,51.1,53.7,49.9,45.8,83,65,44,30.00,29.81,23,7,24,0.02
2013-5-8,77.6,66.8,56.3,62.1,56.0,51.8,90,70,49,29.93,29.70,41,10,41,1.40
2013-5-9,69.6,60.8,55.3,56.1,53.8,51.1,92,79,57,29.94,29.76,20,6,40,0.20
2013-5-10,70.8,61.6,55.1,53.1,48.7,41.8,86,65,36,30.04,29.93,21,7,21,0.00
2013-5-11,67.1,59.5,51.7,49.2,35.1,21.4,82,45,19,30.21,30.00,31,9,31,0.00
2013-5-12,68.6,55.7,43.8,45.4,37.6,27.2,73,52,34,30.22,30.00,27,7,27,0.05
2013-5-13,84.1,65.2,45.1,59.0,48.9,41.0,86,59,31,30.04,29.81,23,6,23,0.00
2013-5-14,93.8,77.3,60.5,56.5,49.2,42.0,67,41,18,29.81,29.62,39,10,39,0.00
2013-5-15,85.1,74.4,65.6,63.2,56.5,52.0,74,55,34,29.74,29.64,25,10,25,0.00
2013-5-16,78.3,68.6,60.9,61.8,58.9,56.1,94,73,49,29.77,29.67,22,5,22,0.00
2013-5-17,82.8,72.1,60.4,62.6,59.5,56.5,88,66,45,29.80,29.69,23,7,23,0.00
2013-5-18,83.8,73.7,63.4,70.2,65.3,56.7,88,76,58,29.76,29.49,39,11,39,0.23
2013-5-19,80.9,70.8,58.4,67.1,58.0,47.9,85,65,40,29.64,29.35,39,9,39,0.14
2013-5-20,78.6,65.2,57.0,60.2,52.8,44.0,84,66,34,29.69,29.53,23,5,23,0.00
2013-5-21,72.7,62.9,53.2,48.7,45.6,40.9,82,55,35,29.74,29.63,26,7,26,0.00
2013-5-22,73.2,61.7,49.8,52.0,47.4,42.9,83,61,42,29.91,29.72,23,7,23,0.00
2013-5-23,70.8,60.5,52.0,53.5,49.9,45.9,85,69,50,30.10,29.91,22,8,22,0.00
2013-5-24,76.0,66.0,54.8,64.1,56.2,50.3,86,71,57,30.14,29.91,30,12,30,0.00
2013-5-25,83.4,75.7,68.9,65.4,62.8,58.6,86,66,47,29.98,29.80,37,12,37,0.00
2013-5-26,83.6,74.9,68.3,67.7,65.2,62.4,84,72,57,29.88,29.68,35,14,35,0.00
2013-5-27,85.5,75.7,66.1,68.8,65.9,60.0,82,72,55,29.68,29.40,43,16,43,0.00
2013-5-28,90.5,76.8,69.3,70.6,66.6,63.7,88,72,44,29.57,29.38,44,11,44,0.04
2013-5-29,83.0,72.4,62.4,68.0,63.4,56.2,92,74,55,29.57,29.38,43,15,43,1.72
2013-5-30,78.8,65.5,58.6,59.3,56.4,48.6,92,74,46,29.62,29.45,33,6,33,0.92
2013-5-31,83.8,74.3,65.6,64.7,54.8,41.1,88,55,24,29.68,29.50,21,4,21,0.09